createdAt,value
2023-05-14T00:00:23.309Z,99.90
2023-05-14T00:02:51.351Z,99.90
2023-05-14T00:05:19.547Z,99.90
2023-05-14T00:07:47.016Z,99.90
2023-05-14T00:10:14.511Z,99.90
2023-05-14T00:12:41.977Z,99.90
2023-05-14T00:15:10.378Z,99.90
2023-05-14T00:17:38.152Z,99.90
2023-05-14T00:20:07.295Z,99.90
2023-05-14T00:22:37.244Z,99.90
2023-05-14T00:25:06.609Z,99.90
2023-05-14T00:27:35.021Z,99.90
2023-05-14T00:30:04.797Z,99.90
2023-05-14T00:32:32.694Z,99.90
2023-05-14T00:35:02.990Z,99.90
2023-05-14T00:37:31.702Z,99.90
2023-05-14T00:40:01.867Z,99.90
2023-05-14T00:42:30.285Z,99.90
2023-05-14T00:44:57.766Z,99.90
2023-05-14T00:47:27.111Z,99.90
2023-05-14T00:52:28.044Z,99.90
2023-05-14T00:54:57.317Z,99.90
2023-05-14T00:57:24.824Z,99.90
2023-05-14T00:59:52.874Z,99.90
2023-05-14T01:02:21.680Z,99.90
2023-05-14T01:04:49.732Z,99.90
2023-05-14T01:07:35.129Z,99.90
2023-05-14T01:10:11.492Z,99.90
2023-05-14T01:12:44.498Z,99.90
2023-05-14T01:15:19.584Z,99.90
2023-05-14T01:17:52.003Z,99.90
2023-05-14T01:20:20.988Z,99.90
2023-05-14T01:22:49.888Z,99.90
2023-05-14T01:25:18.182Z,99.90
2023-05-14T01:28:04.043Z,99.90
2023-05-14T01:30:36.601Z,99.90
2023-05-14T01:33:09.270Z,99.90
2023-05-14T01:35:37.735Z,99.90
2023-05-14T01:38:10.453Z,99.90
2023-05-14T01:40:38.420Z,99.90
2023-05-14T01:43:06.636Z,99.90
2023-05-14T01:45:36.266Z,99.90
2023-05-14T01:48:05.619Z,99.90
2023-05-14T01:50:33.362Z,99.90
2023-05-14T01:53:00.752Z,99.90
2023-05-14T01:55:30.687Z,99.90
2023-05-14T01:57:58.139Z,99.90
2023-05-14T02:00:26.969Z,99.90
2023-05-14T02:02:54.372Z,99.90
2023-05-14T02:05:23.786Z,99.90
2023-05-14T02:07:51.384Z,99.90
2023-05-14T02:10:18.833Z,99.90
2023-05-14T02:12:49.961Z,99.90
2023-05-14T02:15:24.778Z,99.90
2023-05-14T02:17:53.410Z,99.90
2023-05-14T02:20:20.959Z,99.90
2023-05-14T02:22:48.524Z,99.90
2023-05-14T02:25:16.151Z,99.90
2023-05-14T02:27:45.846Z,99.90
2023-05-14T02:30:13.549Z,99.90
2023-05-14T02:32:41.280Z,99.90
2023-05-14T02:35:09.709Z,99.90
2023-05-14T02:37:37.912Z,99.90
2023-05-14T02:40:07.387Z,99.90
2023-05-14T02:42:35.614Z,99.90
2023-05-14T02:45:02.955Z,99.90
2023-05-14T02:47:30.436Z,99.90
2023-05-14T02:49:57.914Z,99.90
2023-05-14T02:54:53.108Z,99.90
2023-05-14T02:57:21.169Z,99.90
2023-05-14T02:59:49.341Z,99.90
2023-05-14T03:02:17.211Z,99.90
2023-05-14T03:07:12.721Z,99.90
2023-05-14T03:09:40.061Z,99.90
2023-05-14T03:12:08.127Z,99.90
2023-05-14T03:14:35.502Z,99.90
2023-05-14T03:17:03.951Z,99.90
2023-05-14T03:19:31.886Z,99.90
2023-05-14T03:21:59.856Z,99.90
2023-05-14T03:24:28.229Z,99.90
2023-05-14T03:26:55.524Z,99.90
2023-05-14T03:29:23.200Z,99.90
2023-05-14T03:31:51.000Z,99.90
2023-05-14T03:34:18.431Z,99.90
2023-05-14T03:36:45.886Z,99.90
2023-05-14T03:39:17.954Z,99.90
2023-05-14T03:41:46.825Z,99.90
2023-05-14T03:44:14.718Z,99.90
2023-05-14T03:46:42.153Z,99.90
2023-05-14T03:49:09.978Z,99.90
2023-05-14T03:51:37.427Z,99.90
2023-05-14T03:54:07.586Z,99.90
2023-05-14T03:56:36.116Z,99.90
2023-05-14T03:59:04.005Z,99.90
2023-05-14T04:01:32.759Z,99.90
2023-05-14T04:04:00.216Z,99.90
2023-05-14T04:06:27.681Z,99.90
2023-05-14T04:08:55.586Z,99.90
2023-05-14T04:11:22.895Z,99.90
2023-05-14T04:13:50.253Z,99.90
2023-05-14T04:16:17.763Z,99.90
2023-05-14T04:18:45.298Z,99.90
2023-05-14T04:21:12.693Z,99.90
2023-05-14T04:23:40.181Z,99.90
2023-05-14T04:26:07.536Z,99.90
2023-05-14T04:31:03.846Z,99.90
2023-05-14T04:33:32.120Z,99.90
2023-05-14T04:38:28.202Z,99.90
2023-05-14T04:40:55.571Z,99.90
2023-05-14T04:43:22.856Z,99.90
2023-05-14T04:45:51.373Z,99.90
2023-05-14T04:48:19.011Z,99.90
2023-05-14T04:50:46.677Z,99.90
2023-05-14T04:53:14.162Z,99.90
2023-05-14T04:55:42.941Z,99.90
2023-05-14T04:58:10.541Z,99.90
2023-05-14T05:00:40.076Z,99.90
2023-05-14T05:03:08.792Z,99.90
2023-05-14T05:05:36.368Z,99.90
2023-05-14T05:08:03.945Z,99.90
2023-05-14T05:10:31.582Z,99.90
2023-05-14T05:15:27.163Z,99.90
2023-05-14T05:17:54.807Z,99.90
2023-05-14T05:22:51.099Z,99.90
2023-05-14T05:25:18.541Z,99.90
2023-05-14T05:27:46.878Z,99.90
2023-05-14T05:30:14.558Z,99.90
2023-05-14T05:35:12.652Z,99.90
2023-05-14T05:37:41.468Z,99.90
2023-05-14T05:40:10.251Z,99.90
2023-05-14T05:42:37.839Z,99.90
2023-05-14T05:45:06.943Z,99.90
2023-05-14T05:50:03.025Z,99.90
2023-05-14T05:54:58.269Z,99.90
2023-05-14T05:57:27.355Z,99.90
2023-05-14T05:59:55.872Z,99.90
2023-05-14T06:02:23.426Z,99.90
2023-05-14T06:07:18.783Z,99.90
2023-05-14T06:09:46.157Z,99.90
2023-05-14T06:12:15.051Z,99.90
2023-05-14T06:14:43.938Z,99.90
2023-05-14T06:19:39.435Z,99.90
2023-05-14T06:24:35.802Z,99.90
2023-05-14T06:27:03.579Z,99.90
2023-05-14T06:29:32.436Z,99.90
2023-05-14T06:32:04.450Z,99.90
2023-05-14T06:34:32.368Z,99.90
2023-05-14T06:37:00.533Z,99.90
2023-05-14T06:39:28.846Z,99.90
2023-05-14T06:41:56.258Z,99.90
2023-05-14T06:44:24.349Z,99.90
2023-05-14T06:46:52.131Z,99.90
2023-05-14T06:49:19.712Z,99.90
2023-05-14T06:51:47.516Z,99.90
2023-05-14T06:56:43.893Z,99.90
2023-05-14T06:59:11.349Z,99.90
2023-05-14T07:01:39.483Z,99.90
2023-05-14T07:04:08.532Z,99.90
2023-05-14T07:06:36.102Z,99.90
2023-05-14T07:09:03.883Z,99.90
2023-05-14T07:11:31.372Z,99.90
2023-05-14T07:14:01.156Z,99.90
2023-05-14T07:16:28.711Z,99.90
2023-05-14T07:18:56.139Z,99.90
2023-05-14T07:21:23.586Z,99.90
2023-05-14T07:23:51.995Z,99.90
2023-05-14T07:26:19.368Z,99.90
2023-05-14T07:28:46.809Z,99.90
2023-05-14T07:31:15.730Z,99.90
2023-05-14T07:33:43.125Z,99.90
2023-05-14T07:36:10.610Z,99.90
2023-05-14T07:38:38.220Z,99.90
2023-05-14T07:41:05.787Z,99.90
2023-05-14T07:43:33.165Z,99.90
2023-05-14T07:46:00.957Z,99.90
2023-05-14T07:48:28.492Z,99.90
2023-05-14T07:50:56.421Z,99.90
2023-05-14T07:53:25.072Z,99.90
2023-05-14T07:55:52.881Z,99.90
2023-05-14T07:58:22.346Z,99.90
2023-05-14T08:00:49.735Z,99.90
2023-05-14T08:03:17.231Z,99.90
2023-05-14T08:05:44.982Z,99.90
2023-05-14T08:08:20.036Z,99.90
2023-05-14T08:10:47.789Z,99.90
2023-05-14T08:13:15.436Z,99.90
2023-05-14T08:15:42.778Z,99.90
2023-05-14T08:18:12.699Z,99.90
2023-05-14T08:20:40.235Z,99.90
2023-05-14T08:25:36.300Z,99.90
2023-05-14T08:28:03.786Z,99.90
2023-05-14T08:32:59.721Z,99.90
2023-05-14T08:35:27.238Z,99.90
2023-05-14T08:37:57.202Z,99.90
2023-05-14T08:40:26.520Z,99.90
2023-05-14T08:42:56.770Z,99.90
2023-05-14T08:45:34.623Z,99.90
2023-05-14T08:48:08.852Z,99.90
2023-05-14T08:50:37.002Z,99.90
2023-05-14T08:53:04.347Z,99.90
2023-05-14T08:58:01.709Z,99.90
2023-05-14T09:00:29.499Z,99.90
2023-05-14T09:02:57.897Z,99.90
2023-05-14T09:05:25.548Z,99.90
2023-05-14T09:07:53.823Z,99.90
2023-05-14T09:10:22.327Z,99.90
2023-05-14T09:12:51.834Z,99.90
2023-05-14T09:15:19.906Z,99.90
2023-05-14T09:22:43.898Z,99.90
2023-05-14T09:25:14.776Z,99.90
2023-05-14T09:30:12.771Z,99.90
2023-05-14T09:32:44.221Z,99.90
2023-05-14T09:35:23.245Z,99.90
2023-05-14T09:37:55.565Z,99.90
2023-05-14T09:40:25.013Z,99.90
2023-05-14T09:42:52.569Z,99.90
2023-05-14T09:45:22.583Z,99.90
2023-05-14T09:47:50.128Z,99.90
2023-05-14T09:50:18.400Z,99.90
2023-05-14T09:52:45.941Z,99.90
2023-05-14T09:55:16.279Z,99.90
2023-05-14T09:57:44.219Z,99.90
2023-05-14T10:00:13.467Z,99.90
2023-05-14T10:02:42.773Z,99.90
2023-05-14T10:05:13.081Z,99.90
2023-05-14T10:07:46.355Z,99.90
2023-05-14T10:10:19.235Z,99.90
2023-05-14T10:12:56.787Z,99.90
2023-05-14T10:15:30.032Z,99.90
2023-05-14T10:18:03.478Z,99.90
2023-05-14T10:20:32.602Z,99.90
2023-05-14T10:23:00.623Z,99.90
2023-05-14T10:25:30.034Z,99.90
2023-05-14T10:27:58.037Z,99.90
2023-05-14T10:30:25.930Z,99.90
2023-05-14T10:33:12.454Z,99.90
2023-05-14T10:36:00.993Z,99.90
2023-05-14T10:38:33.640Z,99.90
2023-05-14T10:41:07.089Z,99.90
2023-05-14T10:43:38.843Z,99.90
2023-05-14T10:46:07.542Z,99.90
2023-05-14T10:48:36.633Z,99.90
2023-05-14T10:51:04.069Z,99.90
2023-05-14T10:53:42.767Z,99.90
2023-05-14T10:56:12.299Z,99.90
2023-05-14T10:58:45.314Z,99.90
2023-05-14T11:01:14.121Z,99.90
2023-05-14T11:03:42.742Z,99.90
2023-05-14T11:06:13.042Z,99.90
2023-05-14T11:08:43.871Z,99.90
2023-05-14T11:11:15.510Z,99.90
2023-05-14T11:13:43.679Z,99.90
2023-05-14T11:16:22.657Z,99.90
2023-05-14T11:19:04.619Z,99.90
2023-05-14T11:24:05.356Z,99.90
2023-05-14T11:26:33.052Z,99.90
2023-05-14T11:29:01.065Z,99.90
2023-05-14T11:31:28.598Z,99.90
2023-05-14T11:33:56.223Z,99.90
2023-05-14T11:36:23.600Z,99.90
2023-05-14T11:38:52.343Z,99.90
2023-05-14T11:41:21.628Z,99.90
2023-05-14T11:43:49.286Z,99.90
2023-05-14T11:46:18.671Z,99.90
2023-05-14T11:48:47.546Z,99.90
2023-05-14T11:51:15.093Z,99.90
2023-05-14T11:53:42.362Z,99.90
2023-05-14T11:56:10.056Z,99.90
2023-05-14T11:58:37.742Z,99.90
2023-05-14T12:01:05.632Z,99.90
2023-05-14T12:03:33.233Z,99.90
2023-05-14T12:06:03.444Z,99.90
2023-05-14T12:08:31.598Z,99.90
2023-05-14T12:11:00.595Z,99.90
2023-05-14T12:13:31.488Z,99.90
2023-05-14T12:16:02.161Z,99.90
2023-05-14T12:18:31.459Z,99.90
2023-05-14T12:21:07.906Z,99.90
2023-05-14T12:23:35.551Z,99.90
2023-05-14T12:26:08.531Z,99.90
2023-05-14T12:28:39.992Z,99.90
2023-05-14T12:31:07.326Z,99.90
2023-05-14T12:33:34.725Z,99.90
2023-05-14T12:38:34.587Z,99.90
2023-05-14T12:41:02.096Z,99.90
2023-05-14T12:43:31.682Z,99.90
2023-05-14T12:45:59.001Z,99.90
2023-05-14T12:48:26.589Z,99.90
2023-05-14T12:50:53.939Z,99.90
2023-05-14T12:53:21.201Z,99.90
2023-05-14T12:55:49.658Z,99.90
2023-05-14T12:58:17.190Z,99.90
2023-05-14T13:00:44.520Z,99.90
2023-05-14T13:03:11.919Z,99.90
2023-05-14T13:05:39.383Z,99.90
2023-05-14T13:08:06.721Z,99.90
2023-05-14T13:10:34.023Z,99.90
2023-05-14T13:13:02.499Z,99.90
2023-05-14T13:15:31.569Z,99.90
2023-05-14T13:17:59.114Z,99.90
2023-05-14T13:20:30.991Z,99.90
2023-05-14T13:22:59.690Z,99.90
2023-05-14T13:25:27.685Z,99.90
2023-05-14T13:27:56.098Z,99.20
2023-05-14T13:30:23.554Z,99.20
2023-05-14T13:32:51.093Z,97.80
2023-05-14T13:35:18.472Z,99.60
2023-05-14T13:37:47.219Z,99.90
2023-05-14T13:40:16.692Z,99.90
2023-05-14T13:42:44.019Z,98.50
2023-05-14T13:45:13.061Z,97.60
2023-05-14T13:47:41.468Z,97.50
2023-05-14T13:50:09.393Z,96.10
2023-05-14T13:52:37.798Z,98.10
2023-05-14T13:55:05.600Z,97.90
2023-05-14T13:57:32.906Z,95.20
2023-05-14T14:00:00.265Z,97.30
2023-05-14T14:02:27.668Z,96.20
2023-05-14T14:04:54.941Z,95.70
2023-05-14T14:07:22.628Z,94.70
2023-05-14T14:09:49.897Z,95.10
2023-05-14T14:12:17.476Z,94.40
2023-05-14T14:14:44.798Z,99.90
2023-05-14T14:17:12.115Z,95.00
2023-05-14T14:19:39.418Z,93.40
2023-05-14T14:22:07.002Z,92.60
2023-05-14T14:24:34.532Z,93.30
2023-05-14T14:27:02.573Z,92.40
2023-05-14T14:29:31.131Z,93.70
2023-05-14T14:31:59.144Z,93.10
2023-05-14T14:34:26.625Z,94.00
2023-05-14T14:36:53.922Z,93.50
2023-05-14T14:39:21.552Z,93.70
2023-05-14T14:41:48.960Z,94.60
2023-05-14T14:44:16.288Z,94.50
2023-05-14T14:46:43.594Z,93.80
2023-05-14T14:49:11.139Z,94.40
2023-05-14T14:51:38.447Z,94.50
2023-05-14T14:54:05.900Z,94.30
2023-05-14T14:56:33.857Z,94.20
2023-05-14T14:59:03.792Z,95.20
2023-05-14T15:01:32.910Z,94.90
2023-05-14T15:04:00.404Z,99.90
2023-05-14T15:06:27.913Z,95.80
2023-05-14T15:08:55.216Z,95.60
2023-05-14T15:11:23.397Z,95.00
2023-05-14T15:13:50.927Z,94.60
2023-05-14T15:16:18.277Z,94.70
2023-05-14T15:18:45.808Z,95.70
2023-05-14T15:21:13.216Z,95.30
2023-05-14T15:23:40.724Z,96.00
2023-05-14T15:26:08.111Z,95.60
2023-05-14T15:28:35.601Z,96.20
2023-05-14T15:31:03.572Z,96.10
2023-05-14T15:33:30.928Z,96.10
2023-05-14T15:35:58.483Z,96.40
2023-05-14T15:38:25.996Z,96.50
2023-05-14T15:40:54.641Z,97.10
2023-05-14T15:43:24.571Z,96.70
2023-05-14T15:45:51.897Z,96.50
2023-05-14T15:48:19.199Z,97.00
2023-05-14T15:50:49.659Z,96.40
2023-05-14T15:53:17.871Z,97.00
2023-05-14T15:55:45.324Z,96.50
2023-05-14T15:58:12.871Z,96.50
2023-05-14T16:00:40.297Z,99.90
2023-05-14T16:03:07.729Z,97.30
2023-05-14T16:05:35.301Z,97.40
2023-05-14T16:08:02.742Z,97.50
2023-05-14T16:10:32.782Z,97.10
2023-05-14T16:13:00.289Z,96.50
2023-05-14T16:15:29.216Z,97.10
2023-05-14T16:17:57.429Z,96.80
2023-05-14T16:20:25.016Z,97.40
2023-05-14T16:22:52.545Z,97.60
2023-05-14T16:25:19.855Z,97.70
2023-05-14T16:27:47.209Z,97.60
2023-05-14T16:30:14.587Z,96.40
2023-05-14T16:32:42.271Z,97.40
2023-05-14T16:35:09.929Z,97.50
2023-05-14T16:37:37.291Z,95.80
2023-05-14T16:40:07.447Z,96.30
2023-05-14T16:42:34.872Z,95.70
2023-05-14T16:45:02.196Z,96.10
2023-05-14T16:47:29.568Z,95.20
2023-05-14T16:50:00.059Z,95.20
2023-05-14T16:52:27.936Z,95.50
2023-05-14T16:54:56.692Z,95.70
2023-05-14T16:57:25.490Z,95.60
2023-05-14T16:59:53.542Z,95.40
2023-05-14T17:02:20.974Z,95.80
2023-05-14T17:04:51.502Z,95.60
2023-05-14T17:07:18.877Z,96.10
2023-05-14T17:09:46.251Z,96.90
2023-05-14T17:12:13.970Z,99.90
2023-05-14T17:14:41.279Z,96.90
2023-05-14T17:17:10.819Z,99.90
2023-05-14T17:19:39.610Z,96.00
2023-05-14T17:22:07.503Z,97.00
2023-05-14T17:24:36.379Z,97.10
2023-05-14T17:27:05.072Z,97.80
2023-05-14T17:29:32.764Z,97.90
2023-05-14T17:32:00.558Z,98.00
2023-05-14T17:34:28.240Z,98.30
2023-05-14T17:36:56.257Z,98.80
2023-05-14T17:39:24.852Z,99.20
2023-05-14T17:41:52.758Z,99.60
2023-05-14T17:44:21.407Z,99.60
2023-05-14T17:46:49.728Z,99.70
2023-05-14T17:49:17.043Z,99.90
2023-05-14T17:51:44.490Z,99.90
2023-05-14T17:54:11.784Z,99.90
2023-05-14T17:56:39.584Z,99.90
2023-05-14T17:59:07.157Z,99.90
2023-05-14T18:01:34.487Z,99.90
2023-05-14T18:04:02.338Z,99.90
2023-05-14T18:06:29.754Z,99.90
2023-05-14T18:08:57.272Z,99.90
2023-05-14T18:11:24.754Z,99.90
2023-05-14T18:13:52.041Z,99.90
2023-05-14T18:16:19.590Z,99.90
2023-05-14T18:18:47.316Z,99.90
2023-05-14T18:21:16.034Z,99.90
2023-05-14T18:23:43.554Z,99.90
2023-05-14T18:26:10.970Z,99.90
2023-05-14T18:28:38.583Z,99.90
2023-05-14T18:31:06.039Z,99.90
2023-05-14T18:33:33.898Z,99.90
2023-05-14T18:36:01.695Z,99.90
2023-05-14T18:38:29.044Z,99.90
2023-05-14T18:40:56.399Z,99.90
2023-05-14T18:43:23.872Z,99.90
2023-05-14T18:45:51.412Z,99.90
2023-05-14T18:48:18.818Z,99.90
2023-05-14T18:50:46.127Z,99.90
2023-05-14T18:53:15.009Z,99.90
2023-05-14T18:55:43.206Z,99.90
2023-05-14T18:58:10.688Z,99.90
2023-05-14T19:00:37.985Z,99.90
2023-05-14T19:03:05.501Z,99.90
2023-05-14T19:05:33.106Z,99.90
2023-05-14T19:08:01.029Z,99.90
2023-05-14T19:10:28.417Z,99.90
2023-05-14T19:12:55.969Z,99.90
2023-05-14T19:15:23.513Z,99.90
2023-05-14T19:17:52.079Z,99.90
2023-05-14T19:20:19.522Z,99.90
2023-05-14T19:22:46.949Z,99.90
2023-05-14T19:25:15.416Z,99.90
2023-05-14T19:27:43.110Z,99.90
2023-05-14T19:30:11.144Z,99.90
2023-05-14T19:32:38.532Z,99.90
2023-05-14T19:35:08.041Z,99.90
2023-05-14T19:37:35.538Z,99.90
2023-05-14T19:40:03.662Z,99.90
2023-05-14T19:44:59.104Z,99.90
2023-05-14T19:47:28.463Z,99.90
2023-05-14T19:49:55.882Z,99.90
2023-05-14T19:52:23.378Z,99.90
2023-05-14T19:54:50.780Z,99.90
2023-05-14T19:57:18.141Z,99.90
2023-05-14T19:59:45.655Z,99.90
2023-05-14T20:02:18.660Z,99.90
2023-05-14T20:04:47.386Z,99.90
2023-05-14T20:07:15.809Z,99.90
2023-05-14T20:09:43.300Z,99.90
2023-05-14T20:12:13.247Z,99.90
2023-05-14T20:14:41.492Z,99.90
2023-05-14T20:17:09.164Z,99.90
2023-05-14T20:19:36.622Z,99.90
2023-05-14T20:22:05.600Z,99.90
2023-05-14T20:24:32.961Z,99.90
2023-05-14T20:29:29.729Z,99.90
2023-05-14T20:31:57.300Z,99.90
2023-05-14T20:34:25.153Z,99.90
2023-05-14T20:36:53.429Z,99.90
2023-05-14T20:39:22.535Z,99.90
2023-05-14T20:41:50.106Z,99.90
2023-05-14T20:44:18.432Z,99.90
2023-05-14T20:46:48.471Z,99.90
2023-05-14T20:49:16.106Z,99.90
2023-05-14T20:51:43.459Z,99.90
2023-05-14T20:54:11.252Z,99.90
2023-05-14T20:56:38.821Z,99.90
2023-05-14T20:59:08.760Z,99.90
2023-05-14T21:04:05.363Z,99.90
2023-05-14T21:06:32.736Z,99.90
2023-05-14T21:09:00.048Z,99.90
2023-05-14T21:11:27.329Z,99.90
2023-05-14T21:13:54.962Z,99.90
2023-05-14T21:16:22.489Z,99.90
2023-05-14T21:18:49.940Z,99.90
2023-05-14T21:21:17.316Z,99.90
2023-05-14T21:23:44.744Z,99.90
2023-05-14T21:26:12.106Z,99.90
2023-05-14T21:28:39.465Z,99.90
2023-05-14T21:31:06.957Z,99.90
2023-05-14T21:38:32.880Z,99.90
2023-05-14T21:41:01.665Z,99.90
2023-05-14T21:43:29.017Z,99.90
2023-05-14T21:45:56.410Z,99.90
2023-05-14T21:48:24.690Z,99.90
2023-05-14T21:50:52.154Z,99.90
2023-05-14T21:53:19.552Z,99.90
2023-05-14T21:55:46.941Z,99.90
2023-05-14T21:58:14.454Z,99.90
2023-05-14T22:00:41.750Z,99.90
2023-05-14T22:03:09.333Z,99.90
2023-05-14T22:05:36.943Z,99.90
2023-05-14T22:08:04.404Z,99.90
2023-05-14T22:10:33.045Z,99.90
2023-05-14T22:13:01.752Z,99.90
2023-05-14T22:15:30.604Z,99.90
2023-05-14T22:17:58.458Z,99.90
2023-05-14T22:20:25.980Z,99.90
2023-05-14T22:22:53.409Z,99.90
2023-05-14T22:25:21.895Z,99.90
2023-05-14T22:27:49.268Z,99.90
2023-05-14T22:30:16.600Z,99.90
2023-05-14T22:35:11.699Z,99.90
2023-05-14T22:37:42.128Z,99.90
2023-05-14T22:40:10.054Z,99.90
2023-05-14T22:42:38.673Z,99.90
2023-05-14T22:45:06.821Z,99.90
2023-05-14T22:47:34.236Z,99.90
2023-05-14T22:50:01.547Z,99.90
2023-05-14T22:52:29.024Z,99.90
2023-05-14T22:54:56.401Z,99.90
2023-05-14T22:57:23.985Z,99.90
2023-05-14T22:59:51.478Z,99.90
2023-05-14T23:02:19.641Z,99.90
2023-05-14T23:04:47.120Z,99.90
2023-05-14T23:07:15.297Z,99.90
2023-05-14T23:09:42.549Z,99.90
2023-05-14T23:12:10.090Z,99.90
2023-05-14T23:14:38.495Z,99.90
2023-05-14T23:17:05.882Z,99.90
2023-05-14T23:19:34.672Z,99.90
2023-05-14T23:22:03.749Z,99.90
2023-05-14T23:24:31.081Z,99.90
2023-05-14T23:26:58.466Z,99.90
2023-05-14T23:29:27.314Z,99.90
2023-05-14T23:31:54.643Z,99.90
2023-05-14T23:34:23.373Z,99.90
2023-05-14T23:36:51.460Z,99.90
2023-05-14T23:39:19.065Z,99.90
2023-05-14T23:41:46.464Z,99.90
2023-05-14T23:44:14.175Z,99.90
2023-05-14T23:46:42.970Z,99.90
2023-05-14T23:49:10.399Z,99.90
2023-05-14T23:51:38.180Z,99.90
2023-05-14T23:56:33.699Z,99.90
